createdAt,value
2023-02-19T00:01:58.033Z,0.50
2023-02-19T00:07:01.602Z,0.60
2023-02-19T00:12:05.304Z,0.60
2023-02-19T00:17:10.291Z,0.50
2023-02-19T00:22:13.881Z,0.63
2023-02-19T00:27:17.586Z,0.70
2023-02-19T00:32:22.571Z,0.70
2023-02-19T00:37:26.158Z,0.83
2023-02-19T00:42:29.740Z,0.53
2023-02-19T00:47:34.791Z,0.60
2023-02-19T00:52:38.418Z,0.67
2023-02-19T00:57:41.998Z,0.80
2023-02-19T01:02:46.985Z,1.03
2023-02-19T01:07:50.616Z,0.80
2023-02-19T01:12:55.918Z,0.60
2023-02-19T01:18:00.900Z,0.60
2023-02-19T01:23:04.548Z,0.70
2023-02-19T01:28:08.954Z,0.70
2023-02-19T01:33:13.929Z,0.60
2023-02-19T01:38:17.519Z,0.63
2023-02-19T01:43:21.135Z,0.70
2023-02-19T01:48:28.520Z,1.33
2023-02-19T01:53:37.904Z,0.70
2023-02-19T01:58:42.206Z,0.90
2023-02-19T02:03:50.456Z,0.97
2023-02-19T02:09:16.256Z,1.37
2023-02-19T02:14:22.738Z,0.93
2023-02-19T02:19:53.776Z,1.67
2023-02-19T02:25:22.734Z,1.20
2023-02-19T02:30:43.704Z,1.40
2023-02-19T02:35:51.474Z,1.23
2023-02-19T02:40:57.853Z,0.80
2023-02-19T02:46:03.271Z,1.07
2023-02-19T02:51:17.110Z,0.70
2023-02-19T02:56:35.049Z,1.20
2023-02-19T03:02:02.664Z,1.40
2023-02-19T03:07:10.454Z,1.40
2023-02-19T03:12:36.802Z,1.27
2023-02-19T03:18:03.863Z,1.13
2023-02-19T03:23:10.200Z,0.77
2023-02-19T03:28:17.914Z,1.50
2023-02-19T03:33:27.842Z,1.70
2023-02-19T03:38:40.883Z,2.20
2023-02-19T03:43:53.717Z,1.77
2023-02-19T03:49:04.403Z,2.37
2023-02-19T03:54:16.131Z,4.03
2023-02-19T03:59:31.293Z,2.13
2023-02-19T04:04:40.301Z,2.60
2023-02-19T04:09:49.857Z,2.80
2023-02-19T04:15:00.794Z,2.10
2023-02-19T04:20:09.686Z,3.03
2023-02-19T04:25:13.267Z,1.80
2023-02-19T04:30:17.098Z,3.33
2023-02-19T04:35:22.517Z,4.07
2023-02-19T04:40:26.118Z,2.63
2023-02-19T04:45:29.760Z,5.20
2023-02-19T04:50:34.847Z,2.30
2023-02-19T04:55:39.776Z,2.33
2023-02-19T05:00:43.444Z,2.60
2023-02-19T05:05:48.739Z,3.53
2023-02-19T05:10:52.363Z,3.97
2023-02-19T05:15:57.491Z,2.13
2023-02-19T05:21:03.037Z,2.13
2023-02-19T05:26:08.688Z,2.40
2023-02-19T05:31:13.413Z,2.67
2023-02-19T05:36:19.801Z,2.63
2023-02-19T05:41:25.926Z,3.03
2023-02-19T05:46:30.851Z,3.77
2023-02-19T05:51:35.798Z,3.50
2023-02-19T05:56:40.811Z,2.70
2023-02-19T06:01:44.460Z,2.93
2023-02-19T06:06:49.905Z,3.70
2023-02-19T06:11:53.607Z,4.37
2023-02-19T06:16:57.278Z,2.63
2023-02-19T06:22:02.320Z,3.97
2023-02-19T06:27:07.065Z,2.40
2023-02-19T06:32:10.799Z,2.80
2023-02-19T06:37:16.044Z,3.53
2023-02-19T06:42:19.648Z,3.73
2023-02-19T06:47:25.391Z,3.50
2023-02-19T06:52:30.477Z,3.33
2023-02-19T06:57:34.058Z,3.80
2023-02-19T07:02:37.758Z,4.07
2023-02-19T07:07:42.736Z,3.10
2023-02-19T07:12:46.396Z,4.03
2023-02-19T07:17:50.397Z,3.53
2023-02-19T07:22:55.548Z,2.67
2023-02-19T07:27:59.265Z,2.93
2023-02-19T07:33:03.191Z,2.80
2023-02-19T07:38:08.227Z,3.40
2023-02-19T07:43:11.879Z,2.57
2023-02-19T07:48:15.723Z,4.23
2023-02-19T07:53:20.968Z,2.47
2023-02-19T07:58:24.666Z,2.33
2023-02-19T08:03:29.111Z,1.73
2023-02-19T08:08:34.208Z,2.10
2023-02-19T08:13:37.828Z,1.57
2023-02-19T08:18:41.461Z,2.07
2023-02-19T08:23:49.336Z,2.60
2023-02-19T08:28:54.533Z,4.03
2023-02-19T08:33:58.187Z,2.00
2023-02-19T08:39:03.290Z,2.43
2023-02-19T08:44:06.942Z,2.03
2023-02-19T08:49:10.543Z,1.80
2023-02-19T08:54:15.533Z,2.33
2023-02-19T08:59:22.610Z,1.93
2023-02-19T09:04:26.284Z,2.00
2023-02-19T09:09:31.252Z,1.37
2023-02-19T09:14:36.019Z,2.17
2023-02-19T09:19:40.408Z,2.10
2023-02-19T09:24:45.832Z,1.70
2023-02-19T09:29:50.006Z,1.33
2023-02-19T09:34:53.641Z,2.83
2023-02-19T09:39:58.502Z,2.90
2023-02-19T09:45:05.388Z,1.83
2023-02-19T09:50:14.649Z,2.60
2023-02-19T09:55:30.319Z,2.10
2023-02-19T10:00:37.207Z,3.17
2023-02-19T10:05:42.293Z,5.03
2023-02-19T10:10:47.314Z,2.77
2023-02-19T10:15:54.887Z,2.67
2023-02-19T10:20:59.818Z,2.40
2023-02-19T10:26:05.476Z,2.40
2023-02-19T10:31:20.402Z,1.40
2023-02-19T10:36:32.330Z,1.87
2023-02-19T10:41:44.348Z,1.83
2023-02-19T10:46:51.353Z,1.60
2023-02-19T10:51:56.516Z,0.97
2023-02-19T11:02:29.985Z,1.83
2023-02-19T11:07:34.085Z,3.80
2023-02-19T11:12:37.892Z,2.23
2023-02-19T11:17:43.237Z,2.13
2023-02-19T11:22:47.038Z,0.87
2023-02-19T11:27:59.921Z,1.80
2023-02-19T11:33:28.118Z,0.93
2023-02-19T11:38:31.995Z,1.27
2023-02-19T11:43:50.739Z,1.07
2023-02-19T11:49:05.518Z,2.10
2023-02-19T11:54:22.971Z,1.10
2023-02-19T11:59:33.910Z,1.77
2023-02-19T12:05:10.526Z,1.07
2023-02-19T12:10:21.143Z,1.33
2023-02-19T12:15:44.534Z,1.50
2023-02-19T12:20:57.417Z,1.20
2023-02-19T12:26:05.075Z,2.30
2023-02-19T12:31:54.580Z,1.30
2023-02-19T12:37:14.306Z,1.63
2023-02-19T12:42:29.041Z,1.83
2023-02-19T12:47:39.193Z,2.57
2023-02-19T12:52:49.540Z,1.83
2023-02-19T12:57:54.809Z,1.30
2023-02-19T13:03:04.814Z,1.60
2023-02-19T13:08:16.891Z,2.10
2023-02-19T13:13:26.471Z,1.30
2023-02-19T13:18:35.580Z,1.93
2023-02-19T13:24:03.306Z,1.30
2023-02-19T13:29:20.140Z,1.20
2023-02-19T13:34:40.685Z,1.53
2023-02-19T13:39:50.239Z,0.70
2023-02-19T13:44:57.950Z,2.03
2023-02-19T13:50:09.509Z,0.97
2023-02-19T13:55:49.790Z,1.07
2023-02-19T14:00:54.944Z,1.00
2023-02-19T14:06:01.460Z,1.07
2023-02-19T14:11:07.825Z,1.77
2023-02-19T14:16:44.734Z,1.93
2023-02-19T14:21:48.435Z,0.70
2023-02-19T14:26:53.589Z,1.73
2023-02-19T14:31:58.313Z,0.70
2023-02-19T14:37:06.792Z,0.50
2023-02-19T14:42:18.666Z,0.80
2023-02-19T14:47:25.736Z,0.40
2023-02-19T14:52:38.060Z,0.77
2023-02-19T14:57:46.559Z,0.67
2023-02-19T15:02:52.023Z,1.90
2023-02-19T15:07:58.389Z,1.20
2023-02-19T15:13:06.357Z,1.63
2023-02-19T15:18:19.017Z,2.03
2023-02-19T15:23:25.153Z,2.10
2023-02-19T15:28:34.436Z,1.53
2023-02-19T15:33:38.123Z,0.97
2023-02-19T15:38:41.911Z,0.80
2023-02-19T15:43:53.895Z,0.90
2023-02-19T15:49:04.135Z,1.30
2023-02-19T15:54:16.395Z,1.90
2023-02-19T15:59:28.414Z,1.90
2023-02-19T16:04:35.121Z,1.70
2023-02-19T16:09:41.130Z,2.27
2023-02-19T16:14:47.140Z,2.33
2023-02-19T16:19:55.459Z,2.07
2023-02-19T16:25:02.160Z,1.90
2023-02-19T16:30:10.852Z,1.70
2023-02-19T16:35:39.686Z,1.37
2023-02-19T16:41:14.135Z,1.87
2023-02-19T16:46:20.063Z,2.27
2023-02-19T16:51:26.634Z,1.63
2023-02-19T16:56:31.004Z,1.90
2023-02-19T17:01:37.153Z,5.43
2023-02-19T17:06:41.202Z,1.93
2023-02-19T17:11:45.124Z,2.73
2023-02-19T17:16:50.070Z,2.93
2023-02-19T17:21:53.679Z,2.17
2023-02-19T17:26:57.419Z,2.60
2023-02-19T17:32:03.048Z,3.57
2023-02-19T17:37:06.921Z,2.83
2023-02-19T17:42:10.582Z,2.50
2023-02-19T17:47:15.538Z,3.40
2023-02-19T17:52:19.330Z,3.17
2023-02-19T17:57:22.905Z,2.37
2023-02-19T18:02:27.848Z,2.13
2023-02-19T18:07:31.464Z,1.30
2023-02-19T18:12:35.072Z,1.30
2023-02-19T18:17:40.030Z,1.50
2023-02-19T18:22:44.249Z,1.67
2023-02-19T18:27:48.550Z,0.80
2023-02-19T18:32:53.565Z,0.70
2023-02-19T18:37:57.105Z,0.83
2023-02-19T18:43:00.721Z,0.97
2023-02-19T18:48:06.419Z,1.13
2023-02-19T18:53:09.995Z,0.93
2023-02-19T18:58:13.567Z,1.40
2023-02-19T19:03:18.879Z,0.60
2023-02-19T19:08:22.446Z,0.73
2023-02-19T19:13:26.016Z,0.50
2023-02-19T19:18:31.729Z,1.23
2023-02-19T19:23:35.335Z,1.27
2023-02-19T19:28:44.196Z,0.67
2023-02-19T19:33:49.969Z,0.63
2023-02-19T19:38:53.569Z,0.60
2023-02-19T19:43:57.180Z,0.40
2023-02-19T19:49:02.399Z,0.33
2023-02-19T19:54:06.658Z,0.87
2023-02-19T19:59:11.448Z,0.67
2023-02-19T20:04:16.402Z,0.50
2023-02-19T20:09:21.001Z,0.63
2023-02-19T20:14:26.000Z,0.73
2023-02-19T20:19:31.186Z,0.70
2023-02-19T20:24:34.741Z,1.13
2023-02-19T20:29:38.355Z,1.00
2023-02-19T20:34:43.294Z,1.60
2023-02-19T20:39:46.864Z,0.60
2023-02-19T20:44:52.193Z,0.47
2023-02-19T20:49:57.134Z,0.70
2023-02-19T20:55:00.954Z,0.67
2023-02-19T21:00:05.208Z,0.60
2023-02-19T21:05:10.471Z,1.03
2023-02-19T21:10:14.509Z,0.70
2023-02-19T21:15:19.884Z,0.73
2023-02-19T21:20:24.940Z,0.70
2023-02-19T21:25:28.816Z,0.90
2023-02-19T21:30:32.480Z,0.97
2023-02-19T21:35:37.512Z,0.60
2023-02-19T21:40:41.191Z,0.40
2023-02-19T21:45:44.893Z,0.77
2023-02-19T21:50:49.888Z,0.67
2023-02-19T21:55:58.757Z,2.23
2023-02-19T22:01:02.694Z,0.70
2023-02-19T22:06:08.685Z,0.77
2023-02-19T22:11:12.321Z,0.50
2023-02-19T22:16:15.929Z,0.40
2023-02-19T22:21:21.807Z,0.40
2023-02-19T22:26:27.022Z,0.87
2023-02-19T22:31:32.974Z,0.40
2023-02-19T22:36:38.257Z,0.40
2023-02-19T22:41:43.397Z,0.40
2023-02-19T22:46:49.445Z,0.50
2023-02-19T22:51:58.519Z,0.40
2023-02-19T22:57:02.180Z,0.50
2023-02-19T23:02:05.831Z,0.50
2023-02-19T23:07:10.873Z,0.40
2023-02-19T23:12:14.549Z,0.40
2023-02-19T23:17:18.175Z,0.40
2023-02-19T23:22:23.176Z,0.40
2023-02-19T23:27:28.382Z,0.47
2023-02-19T23:32:31.966Z,0.40
2023-02-19T23:37:36.898Z,0.50
2023-02-19T23:42:40.538Z,0.50
2023-02-19T23:47:44.134Z,0.60
2023-02-19T23:52:49.254Z,0.50
2023-02-19T23:57:53.548Z,1.33
